KGRR Airport Information

Runway Information
Runway 08L Length 5000 ft width 100 ft
Elevation 786 ft Threshold 0 ft Heading 81
Runway 26R Length 5000 ft Width 100 ft
Elevation 784 ft Threshold 0 ft Heading 261
Runway 08R Length 10000 ft width 150 ft
Elevation 792 ft Threshold 0 ft Heading 81
Runway 26L Length 10000 ft Width 150 ft
Elevation 790 ft Threshold 0 ft Heading 261
Runway 17 Length 8501 ft width 150 ft
Elevation 782 ft Threshold 0 ft Heading 171
Runway 35 Length 8501 ft Width 150 ft
Elevation 789 ft Threshold 0 ft Heading 351
Airport Frequencies
Type A/D Name GRAND RAPI Frequency 124.6 MHZ
Type A/D Name GRAND RAPI Frequency 128.4 MHZ
Type ATIS Name ATIS Frequency 118.725 MHZ
Type CLD Name CLNC DEL Frequency 119.3 MHZ
Type CTAF Name CTAF Frequency 135.65 MHZ
Type GND Name GND Frequency 121.8 MHZ
Type RDO Name LANSING RD Frequency 122.25 MHZ
Type TWR Name GRAND RAPI Frequency 135.65 MHZ
Type UNIC Name UNICOM Frequency 122.95 MHZ
Airport Navaids
Type NDB Name Knobs Frequency 263 KHZ
Airport Weather Information & NOTAM
ADDS - METARS form results

(0843 UTC 15 December 2018)
Data provider http://aviationweather.gov/metar/data/
 
METAR text: KGRR 150833Z AUTO 12004KT 1/4SM R26L/1000V1200FT FG VV001 00/M01 A3019 RMK AO2 T00001011
Conditions at: KGRR (GRAND RAPIDS , MI, US) observed 0833 UTC 15 December 2018
Temperature: 0.0°C (32°F)
Dewpoint: -1.1°C (30°F) [RH = 92%]
Pressure (altimeter): 30.19 inches Hg (1022.4 mb)
Winds: from the ESE (120 degrees) at 5 MPH (4 knots; 2.1 m/s)
Visibility: 0.25 miles (0.40 km)
Ceiling: indefinite ceiling with vertical visibility of 100 feet AGL
Clouds: obscured sky
Weather: FG  (fog)

METAR text: KGRR 150827Z AUTO 11006KT 3/4SM R26L/1200V5500FT BR VV002 M01/M02 A3020 RMK AO2 T10111017
Conditions at: KGRR (GRAND RAPIDS , MI, US) observed 0827 UTC 15 December 2018
Temperature: -1.1°C (30°F)
Dewpoint: -1.7°C (29°F) [RH = 96%]
Pressure (altimeter): 30.20 inches Hg (1022.8 mb)
Winds: from the ESE (110 degrees) at 7 MPH (6 knots; 3.1 m/s)
Visibility: 0.75 miles (1.21 km)
Ceiling: indefinite ceiling with vertical visibility of 200 feet AGL
Clouds: obscured sky
Weather: BR  (mist)

METAR text: KGRR 150825Z AUTO 11005KT 1 1/2SM R26L/1200VP6000FT BR FEW003 M01/M02 A3020 RMK AO2 T10111022
Conditions at: KGRR (GRAND RAPIDS , MI, US) observed 0825 UTC 15 December 2018
Temperature: -1.1°C (30°F)
Dewpoint: -2.2°C (28°F) [RH = 92%]
Pressure (altimeter): 30.20 inches Hg (1022.8 mb)
Winds: from the ESE (110 degrees) at 6 MPH (5 knots; 2.6 m/s)
Visibility: 1.50 miles (2.41 km)
Ceiling: at least 12,000 feet AGL
Clouds: few clouds at 300 feet AGL
Weather: BR  (mist)

METAR text: KGRR 150818Z AUTO 11005KT 2SM R26L/5500VP6000FT BR CLR M01/M02 A3020 RMK AO2 T10111022
Conditions at: KGRR (GRAND RAPIDS , MI, US) observed 0818 UTC 15 December 2018
Temperature: -1.1°C (30°F)
Dewpoint: -2.2°C (28°F) [RH = 92%]
Pressure (altimeter): 30.20 inches Hg (1022.8 mb)
Winds: from the ESE (110 degrees) at 6 MPH (5 knots; 2.6 m/s)
Visibility: 2.00 miles (3.22 km)
Ceiling: at least 12,000 feet AGL
Clouds: sky clear below 12,000 feet AGL
Weather: BR  (mist)

METAR text: KGRR 150753Z AUTO 00000KT 1 3/4SM BR CLR 01/00 A3018 RMK AO2 SLP228 T00060000
Conditions at: KGRR (GRAND RAPIDS , MI, US) observed 0753 UTC 15 December 2018
Temperature: 0.6°C (33°F)
Dewpoint: 0.0°C (32°F) [RH = 96%]
Pressure (altimeter): 30.18 inches Hg (1022.1 mb)
[Sea-level pressure: 1022.8 mb]
Winds: calm
Visibility: 1.75 miles (2.82 km)
Ceiling: at least 12,000 feet AGL
Clouds: sky clear below 12,000 feet AGL
Weather: BR  (mist)

METAR text: KGRR 150750Z AUTO 00000KT 1 1/2SM BR CLR 01/M01 A3018 RMK AO2
Conditions at: KGRR (GRAND RAPIDS , MI, US) observed 0750 UTC 15 December 2018
Temperature: 1.0°C (34°F)
Dewpoint: -1.0°C (30°F) [RH = 86%]
Pressure (altimeter): 30.18 inches Hg (1022.1 mb)
Winds: calm
Visibility: 1.50 miles (2.41 km)
Ceiling: at least 12,000 feet AGL
Clouds: sky clear below 12,000 feet AGL
Weather: BR  (mist)

Forecast for: KGRR (GRAND RAPIDS , MI, US)
Text: KGRR 150819Z 1508/1606 VRB03KT 1 1/2SM BR SKC
Forecast period: 0800 to 1200 UTC 15 December 2018
Forecast type: FROM: standard forecast or significant change
Winds: variable direction winds at 3 MPH (3 knots; 1.5 m/s)
Visibility: 1.50 miles (2.41 km)
Clouds: clear skies
Weather: BR  (mist)
Text: TEMPO 1508/1512 1/4SM FG VV002
Forecast period: 0800 to 1200 UTC 15 December 2018
Forecast type: TEMPORARY: The following changes expected for less than half the time period
Visibility: 0.25 miles (0.40 km)
Ceiling: indefinite ceiling with vertical visibility of 200 feet AGL
Clouds: obscured sky
Weather: FG  (fog)
Text: FM151200 07005KT 2SM BR OVC009
Forecast period: 1200 to 1500 UTC 15 December 2018
Forecast type: FROM: standard forecast or significant change
Winds: from the ENE (70 degrees) at 6 MPH (5 knots; 2.6 m/s)
Visibility: 2.00 miles (3.22 km)
Ceiling: 900 feet AGL
Clouds: overcast cloud deck at 900 feet AGL
Weather: BR  (mist)
Text: FM151500 08007KT 6SM BR BKN015
Forecast period: 1500 UTC 15 December 2018 to 0000 UTC 16 December 2018
Forecast type: FROM: standard forecast or significant change
Winds: from the E (80 degrees) at 8 MPH (7 knots; 3.6 m/s)
Visibility: 6 miles (10 km)
Ceiling: 1500 feet AGL
Clouds: broken clouds at 1500 feet AGL
Weather: BR  (mist)
Text: FM160000 05005KT 5SM BR SCT015
Forecast period: 0000 to 0600 UTC 16 December 2018
Forecast type: FROM: standard forecast or significant change
Winds: from the NE (50 degrees) at 6 MPH (5 knots; 2.6 m/s)
Visibility: 5 miles (8 km)
Ceiling: at least 12,000 feet AGL
Clouds: scattered clouds at 1500 feet AGL
Weather: BR  (mist)